Time;durP1;ratioP1;P1;durP2;ratioP2;P2;SDS_P1;SDS_P2;PMS_P1;PMS_P2;Temp;Humidity;BMP_temperature;BMP_pressure;BME280_temperature;BME280_humidity;BME280_pressure;Samples;Min_cycle;Max_cycle;Signal;HPM_P1;HPM_P2
2024/04/06 00:02:05;;;;;;;6.72;2.15;;;;;;;;;;5006741;28;20072;-65
2024/04/06 00:04:32;;;;;;;4.55;2.38;;;;;;;;;;5022650;28;20053;-65
2024/04/06 00:06:58;;;;;;;4.63;2.10;;;;;;;;;;5012358;28;20057;-66
2024/04/06 00:09:25;;;;;;;10.07;2.67;;;;;;;;;;5012956;28;20048;-64
2024/04/06 00:11:51;;;;;;;4.97;2.17;;;;;;;;;;5011631;28;20048;-65
2024/04/06 00:14:19;;;;;;;4.22;2.33;;;;;;;;;;5012972;28;20416;-66
2024/04/06 00:16:46;;;;;;;3.93;2.33;;;;;;;;;;5013681;28;20385;-66
2024/04/06 00:19:12;;;;;;;3.95;2.50;;;;;;;;;;5010635;28;20438;-66
2024/04/06 00:21:38;;;;;;;3.55;2.20;;;;;;;;;;5013688;28;20092;-65
2024/04/06 00:24:04;;;;;;;8.00;1.92;;;;;;;;;;5014945;28;20060;-65
2024/04/06 00:26:30;;;;;;;6.10;2.33;;;;;;;;;;5014279;28;20465;-63
2024/04/06 00:28:57;;;;;;;4.90;1.70;;;;;;;;;;5017632;28;20469;-66
2024/04/06 00:31:23;;;;;;;4.55;2.13;;;;;;;;;;5015369;28;20160;-66
2024/04/06 00:33:49;;;;;;;4.13;2.15;;;;;;;;;;5014413;28;20054;-66
2024/04/06 00:36:15;;;;;;;7.00;2.03;;;;;;;;;;5013032;28;20054;-65
2024/04/06 00:38:41;;;;;;;3.08;2.28;;;;;;;;;;5018313;28;20045;-65
2024/04/06 00:41:08;;;;;;;4.57;2.17;;;;;;;;;;5017231;28;20096;-65
2024/04/06 00:43:34;;;;;;;5.63;2.20;;;;;;;;;;5010405;28;20444;-67
2024/04/06 00:46:00;;;;;;;4.82;2.05;;;;;;;;;;5013783;28;20045;-66
2024/04/06 00:48:26;;;;;;;6.18;1.98;;;;;;;;;;5011616;28;20417;-66
2024/04/06 00:50:56;;;;;;;7.03;1.98;;;;;;;;;;5012343;28;20137;-66
2024/04/06 00:53:22;;;;;;;2.28;1.70;;;;;;;;;;5014389;28;20042;-65
2024/04/06 00:55:48;;;;;;;3.75;1.70;;;;;;;;;;5018218;28;20049;-65
2024/04/06 00:58:14;;;;;;;2.88;1.83;;;;;;;;;;5009674;28;20053;-67
2024/04/06 01:00:40;;;;;;;6.68;2.00;;;;;;;;;;5011608;28;20037;-66
2024/04/06 01:03:06;;;;;;;12.90;2.25;;;;;;;;;;5010212;28;20050;-64
2024/04/06 01:05:33;;;;;;;2.97;1.85;;;;;;;;;;5010873;28;20046;-66
2024/04/06 01:07:59;;;;;;;4.18;2.13;;;;;;;;;;5009705;28;20041;-67
2024/04/06 01:10:27;;;;;;;4.63;1.90;;;;;;;;;;5010317;28;20057;-66
2024/04/06 01:12:53;;;;;;;3.75;1.58;;;;;;;;;;5010693;28;20073;-66
2024/04/06 01:15:19;;;;;;;5.70;2.67;;;;;;;;;;4991977;28;20049;-66
2024/04/06 01:17:45;;;;;;;4.82;1.90;;;;;;;;;;5010946;28;20370;-66
2024/04/06 01:20:12;;;;;;;4.80;1.95;;;;;;;;;;4992714;28;20037;-65
2024/04/06 01:22:39;;;;;;;3.58;2.10;;;;;;;;;;5012946;28;20450;-65
2024/04/06 01:25:06;;;;;;;4.30;1.67;;;;;;;;;;5012126;28;20053;-65
2024/04/06 01:27:32;;;;;;;4.13;1.95;;;;;;;;;;5008217;28;20046;-66
2024/04/06 01:29:58;;;;;;;4.20;1.90;;;;;;;;;;5009565;28;20061;-65
2024/04/06 01:32:24;;;;;;;4.03;1.73;;;;;;;;;;4992494;28;20057;-65
2024/04/06 01:34:50;;;;;;;7.28;2.75;;;;;;;;;;5009930;28;20361;-66
2024/04/06 01:37:17;;;;;;;3.65;1.88;;;;;;;;;;5010193;28;20385;-66
2024/04/06 01:39:43;;;;;;;2.95;2.00;;;;;;;;;;5008543;28;20061;-65
2024/04/06 01:42:09;;;;;;;4.05;2.00;;;;;;;;;;5014181;28;20033;-66
2024/04/06 01:44:35;;;;;;;3.17;1.85;;;;;;;;;;5015731;28;20045;-66
2024/04/06 01:47:01;;;;;;;3.75;1.88;;;;;;;;;;5012644;28;20049;-66
2024/04/06 01:49:27;;;;;;;3.78;1.88;;;;;;;;;;5009209;28;20049;-66
2024/04/06 01:51:53;;;;;;;4.13;2.05;;;;;;;;;;5014373;28;20041;-66
2024/04/06 01:54:19;;;;;;;5.80;2.33;;;;;;;;;;5015955;28;20064;-64
2024/04/06 01:56:45;;;;;;;5.00;1.88;;;;;;;;;;5009345;28;20050;-66
2024/04/06 01:59:11;;;;;;;2.67;1.70;;;;;;;;;;5012595;28;20050;-66
2024/04/06 02:01:37;;;;;;;7.20;2.42;;;;;;;;;;5008126;28;20045;-66
2024/04/06 02:04:03;;;;;;;4.35;2.08;;;;;;;;;;5010964;28;20508;-66
2024/04/06 02:06:30;;;;;;;5.68;1.90;;;;;;;;;;5009761;28;20101;-66
2024/04/06 02:08:56;;;;;;;3.38;1.70;;;;;;;;;;5011170;28;20064;-66
2024/04/06 02:11:22;;;;;;;4.65;1.95;;;;;;;;;;5010074;28;20422;-66
2024/04/06 02:13:48;;;;;;;5.13;2.33;;;;;;;;;;5006278;28;20042;-65
2024/04/06 02:16:16;;;;;;;3.67;1.83;;;;;;;;;;5011554;28;20053;-66
2024/04/06 02:18:43;;;;;;;5.57;1.88;;;;;;;;;;5010152;28;20053;-66
2024/04/06 02:21:10;;;;;;;5.85;1.88;;;;;;;;;;5013846;28;20052;-67
2024/04/06 02:23:36;;;;;;;4.38;2.10;;;;;;;;;;5012740;28;20038;-65
2024/04/06 02:26:02;;;;;;;2.65;2.00;;;;;;;;;;5012992;28;20030;-66
2024/04/06 02:28:28;;;;;;;7.78;2.28;;;;;;;;;;5009040;28;20501;-65
2024/04/06 02:30:55;;;;;;;3.63;2.00;;;;;;;;;;5027072;28;20053;-65
2024/04/06 02:33:21;;;;;;;2.75;2.00;;;;;;;;;;5009690;28;20050;-66
2024/04/06 02:35:47;;;;;;;3.83;1.67;;;;;;;;;;5009712;28;20054;-66
2024/04/06 02:38:16;;;;;;;5.45;1.90;;;;;;;;;;5010608;28;20037;-65
2024/04/06 02:40:42;;;;;;;5.07;1.88;;;;;;;;;;5014911;28;20505;-66
2024/04/06 02:43:08;;;;;;;4.32;2.00;;;;;;;;;;5012829;28;20136;-66
2024/04/06 02:45:35;;;;;;;5.03;1.73;;;;;;;;;;5009514;28;20046;-65
2024/04/06 02:48:01;;;;;;;2.33;1.90;;;;;;;;;;5011455;28;20061;-65
2024/04/06 02:50:27;;;;;;;3.58;1.80;;;;;;;;;;5008543;28;20508;-65
2024/04/06 02:52:53;;;;;;;3.17;1.60;;;;;;;;;;5008366;28;20050;-66
2024/04/06 02:55:19;;;;;;;3.33;1.90;;;;;;;;;;5010667;28;20046;-66
2024/04/06 02:57:45;;;;;;;3.53;1.92;;;;;;;;;;5016724;28;20049;-65
2024/04/06 03:00:12;;;;;;;5.18;2.03;;;;;;;;;;5009271;28;20034;-68
2024/04/06 03:02:39;;;;;;;2.58;1.92;;;;;;;;;;5009172;28;20045;-66
2024/04/06 03:05:05;;;;;;;2.97;1.63;;;;;;;;;;5008618;28;20046;-66
2024/04/06 03:07:31;;;;;;;4.43;2.17;;;;;;;;;;5008660;28;20405;-65
2024/04/06 03:09:58;;;;;;;5.45;1.98;;;;;;;;;;5009988;28;20061;-65
2024/04/06 03:12:24;;;;;;;3.10;1.77;;;;;;;;;;5010303;28;20060;-65
2024/04/06 03:14:51;;;;;;;5.40;1.90;;;;;;;;;;5008855;28;20045;-65
2024/04/06 03:17:17;;;;;;;4.03;2.00;;;;;;;;;;5009297;28;20050;-66
2024/04/06 03:19:43;;;;;;;3.50;1.98;;;;;;;;;;5012035;28;20041;-65
2024/04/06 03:22:09;;;;;;;2.78;2.00;;;;;;;;;;5013511;28;20045;-68
2024/04/06 03:24:35;;;;;;;5.07;2.05;;;;;;;;;;5010869;28;20370;-66
2024/04/06 03:27:01;;;;;;;4.97;2.00;;;;;;;;;;5009332;28;20469;-66
2024/04/06 03:29:27;;;;;;;5.30;1.95;;;;;;;;;;5012561;28;20060;-65
2024/04/06 03:31:53;;;;;;;2.85;1.80;;;;;;;;;;5008727;28;20038;-66
2024/04/06 03:34:22;;;;;;;4.30;2.33;;;;;;;;;;5009019;28;20509;-65
2024/04/06 03:36:48;;;;;;;2.63;1.55;;;;;;;;;;5012874;28;20055;-65
2024/04/06 03:39:14;;;;;;;6.72;3.17;;;;;;;;;;5009362;28;20053;-65
2024/04/06 03:41:40;;;;;;;2.97;1.80;;;;;;;;;;5020060;28;20041;-65
2024/04/06 03:44:07;;;;;;;3.10;1.70;;;;;;;;;;5012539;28;20046;-65
2024/04/06 03:46:33;;;;;;;3.58;1.75;;;;;;;;;;5012652;28;20505;-65
2024/04/06 03:48:59;;;;;;;2.58;1.80;;;;;;;;;;5010126;28;20050;-65
2024/04/06 03:51:25;;;;;;;4.90;1.58;;;;;;;;;;5016683;28;20091;-65
2024/04/06 03:53:51;;;;;;;3.00;1.75;;;;;;;;;;5016138;28;20045;-65
2024/04/06 03:56:17;;;;;;;4.53;1.83;;;;;;;;;;5010702;28;20406;-66
2024/04/06 03:58:43;;;;;;;3.75;1.70;;;;;;;;;;5011235;28;20073;-66
2024/04/06 04:01:09;;;;;;;3.67;1.95;;;;;;;;;;5012901;28;20036;-68
2024/04/06 04:03:37;;;;;;;4.55;1.60;;;;;;;;;;5013883;28;20061;-65
2024/04/06 04:06:04;;;;;;;3.78;1.90;;;;;;;;;;5010901;28;20049;-67
2024/04/06 04:08:31;;;;;;;5.40;2.15;;;;;;;;;;5010646;28;20504;-67
2024/04/06 04:10:57;;;;;;;3.10;1.85;;;;;;;;;;5011090;28;20037;-66
2024/04/06 04:13:24;;;;;;;3.17;1.88;;;;;;;;;;5012567;28;20052;-66
2024/04/06 04:15:50;;;;;;;3.50;2.00;;;;;;;;;;5008563;28;20046;-66
2024/04/06 04:18:16;;;;;;;2.88;1.98;;;;;;;;;;5008010;28;20037;-66
2024/04/06 04:20:42;;;;;;;3.58;2.00;;;;;;;;;;5010888;28;20367;-66
2024/04/06 04:23:10;;;;;;;5.32;1.90;;;;;;;;;;5016630;28;20053;-66
2024/04/06 04:25:36;;;;;;;4.63;2.15;;;;;;;;;;5012069;28;20045;-67
2024/04/06 04:28:02;;;;;;;2.75;1.70;;;;;;;;;;5014848;28;20560;-66
2024/04/06 04:30:28;;;;;;;5.90;3.35;;;;;;;;;;5011542;28;20042;-65
2024/04/06 04:32:54;;;;;;;3.40;2.08;;;;;;;;;;5013128;28;20046;-66
2024/04/06 04:35:21;;;;;;;4.25;1.77;;;;;;;;;;5013848;28;20058;-65
2024/04/06 04:37:47;;;;;;;4.45;2.08;;;;;;;;;;5007346;28;20050;-65
2024/04/06 04:40:13;;;;;;;2.60;1.90;;;;;;;;;;5013781;28;20044;-66
2024/04/06 04:42:39;;;;;;;4.05;2.15;;;;;;;;;;5032156;28;20385;-66
2024/04/06 04:45:11;;;;;;;3.40;2.10;;;;;;;;;;5011585;28;20049;-66
2024/04/06 04:47:38;;;;;;;5.35;2.30;;;;;;;;;;5011963;28;20045;-66
2024/04/06 04:50:04;;;;;;;3.78;2.25;;;;;;;;;;5004797;28;20053;-66
2024/04/06 04:52:31;;;;;;;3.08;2.03;;;;;;;;;;5011782;28;20064;-65
2024/04/06 04:54:58;;;;;;;4.32;2.08;;;;;;;;;;5015824;28;20434;-65
2024/04/06 04:57:24;;;;;;;2.78;1.90;;;;;;;;;;5011342;28;20521;-66
2024/04/06 04:59:50;;;;;;;4.18;1.80;;;;;;;;;;5011057;28;20283;-65
2024/04/06 05:02:16;;;;;;;4.57;2.00;;;;;;;;;;5009525;28;20056;-65
2024/04/06 05:04:42;;;;;;;4.95;2.20;;;;;;;;;;5010936;28;20049;-66
2024/04/06 05:07:09;;;;;;;7.20;2.30;;;;;;;;;;5010665;28;20045;-64
2024/04/06 05:09:36;;;;;;;5.40;2.42;;;;;;;;;;5010725;28;20041;-64
2024/04/06 05:12:02;;;;;;;3.83;2.28;;;;;;;;;;5010720;28;20033;-63
2024/04/06 05:14:29;;;;;;;7.55;3.00;;;;;;;;;;5007037;28;20489;-63
2024/04/06 05:16:55;;;;;;;5.10;2.13;;;;;;;;;;5009672;28;20043;-63
2024/04/06 05:19:21;;;;;;;10.88;3.88;;;;;;;;;;5010825;28;20049;-63
2024/04/06 05:21:48;;;;;;;6.00;2.17;;;;;;;;;;5010531;28;20050;-64
2024/04/06 05:24:14;;;;;;;7.47;2.28;;;;;;;;;;5012988;28;20052;-64
2024/04/06 05:26:44;;;;;;;6.00;2.90;;;;;;;;;;5005301;28;20065;-64
2024/04/06 05:29:11;;;;;;;5.90;2.95;;;;;;;;;;5009307;28;20137;-63
2024/04/06 05:31:38;;;;;;;4.72;2.80;;;;;;;;;;5014095;28;20038;-65
2024/04/06 05:34:05;;;;;;;7.93;2.75;;;;;;;;;;5014179;28;20049;-64
2024/04/06 05:36:31;;;;;;;5.32;2.40;;;;;;;;;;5014211;28;20040;-64
2024/04/06 05:38:57;;;;;;;5.25;2.67;;;;;;;;;;5011199;28;20505;-64
2024/04/06 05:41:24;;;;;;;5.50;2.97;;;;;;;;;;5005347;28;20042;-66
2024/04/06 05:43:53;;;;;;;6.63;2.80;;;;;;;;;;5008678;28;20049;-66
2024/04/06 05:46:19;;;;;;;5.43;2.88;;;;;;;;;;5012308;28;20425;-66
2024/04/06 05:48:45;;;;;;;5.30;2.42;;;;;;;;;;5014121;28;20041;-66
2024/04/06 05:51:11;;;;;;;8.65;2.58;;;;;;;;;;5015798;28;20048;-63
2024/04/06 05:53:40;;;;;;;4.78;2.40;;;;;;;;;;4995476;28;20049;-63
2024/04/06 05:56:08;;;;;;;5.97;2.30;;;;;;;;;;5006626;28;20064;-62
2024/04/06 05:58:37;;;;;;;3.60;2.20;;;;;;;;;;5007427;28;20060;-63
2024/04/06 06:01:03;;;;;;;3.47;2.03;;;;;;;;;;4974932;28;20042;-65
2024/04/06 06:03:30;;;;;;;5.35;2.30;;;;;;;;;;5010092;28;20042;-61
2024/04/06 06:05:56;;;;;;;3.92;2.30;;;;;;;;;;5010954;28;21256;-65
2024/04/06 06:08:22;;;;;;;4.63;2.05;;;;;;;;;;5010142;28;20042;-64
2024/04/06 06:10:48;;;;;;;3.97;2.38;;;;;;;;;;5010402;28;20030;-64
2024/04/06 06:13:14;;;;;;;4.20;2.13;;;;;;;;;;5010935;28;20064;-64
2024/04/06 06:15:40;;;;;;;4.45;2.30;;;;;;;;;;4990986;28;20046;-67
2024/04/06 06:18:07;;;;;;;4.13;2.10;;;;;;;;;;5008708;28;20045;-64
2024/04/06 06:20:35;;;;;;;5.15;2.28;;;;;;;;;;5026452;28;20385;-64
2024/04/06 06:23:01;;;;;;;6.28;2.92;;;;;;;;;;5010603;28;20056;-64
2024/04/06 06:25:27;;;;;;;6.60;2.38;;;;;;;;;;5009937;28;20411;-64
2024/04/06 06:27:53;;;;;;;4.68;2.05;;;;;;;;;;5012584;28;20042;-64
2024/04/06 06:30:19;;;;;;;3.90;2.05;;;;;;;;;;5008490;28;20045;-66
2024/04/06 06:32:45;;;;;;;3.25;2.10;;;;;;;;;;5012494;28;20057;-64
2024/04/06 06:35:11;;;;;;;4.47;2.22;;;;;;;;;;5012518;28;20065;-64
2024/04/06 06:37:37;;;;;;;3.92;2.10;;;;;;;;;;5014580;28;20045;-66
2024/04/06 06:40:04;;;;;;;6.47;2.20;;;;;;;;;;5008895;28;20026;-68
2024/04/06 06:42:30;;;;;;;4.35;2.03;;;;;;;;;;5007274;28;20049;-68
2024/04/06 06:44:56;;;;;;;6.75;2.38;;;;;;;;;;5012881;28;20045;-68
2024/04/06 06:47:24;;;;;;;10.05;2.80;;;;;;;;;;4992567;28;20049;-68
2024/04/06 06:49:51;;;;;;;5.53;2.08;;;;;;;;;;5010546;28;20049;-68
2024/04/06 06:52:17;;;;;;;6.72;2.72;;;;;;;;;;5006092;28;20488;-68
2024/04/06 06:54:43;;;;;;;8.25;2.70;;;;;;;;;;5009233;28;20126;-68
2024/04/06 06:57:09;;;;;;;3.33;1.98;;;;;;;;;;4991345;28;20409;-66
2024/04/06 06:59:35;;;;;;;4.60;2.05;;;;;;;;;;5007032;28;20069;-67
2024/04/06 07:02:02;;;;;;;5.90;2.55;;;;;;;;;;5009347;28;20441;-67
2024/04/06 07:04:28;;;;;;;6.05;2.05;;;;;;;;;;5008484;28;20042;-67
2024/04/06 07:06:54;;;;;;;7.80;3.05;;;;;;;;;;5010650;28;20121;-68
2024/04/06 07:09:20;;;;;;;8.45;3.05;;;;;;;;;;5007442;28;20065;-65
2024/04/06 07:11:46;;;;;;;9.82;2.70;;;;;;;;;;5008039;28;20481;-67
2024/04/06 07:14:13;;;;;;;5.40;2.10;;;;;;;;;;5015338;28;20049;-68
2024/04/06 07:16:39;;;;;;;5.70;2.85;;;;;;;;;;4995385;28;20034;-69
2024/04/06 07:19:06;;;;;;;9.85;3.63;;;;;;;;;;5009243;28;20473;-68
2024/04/06 07:21:32;;;;;;;22.63;3.30;;;;;;;;;;5024590;28;20045;-68
2024/04/06 07:23:59;;;;;;;6.05;2.97;;;;;;;;;;5014653;28;20045;-68
2024/04/06 07:26:25;;;;;;;8.30;3.05;;;;;;;;;;5011829;28;20046;-68
2024/04/06 07:28:51;;;;;;;5.95;3.28;;;;;;;;;;5002841;28;20037;-67
2024/04/06 07:31:18;;;;;;;7.07;3.60;;;;;;;;;;5010705;28;20042;-67
2024/04/06 07:33:44;;;;;;;15.40;4.75;;;;;;;;;;4998076;28;20038;-66
2024/04/06 07:36:10;;;;;;;12.02;3.70;;;;;;;;;;5012250;28;20057;-67
2024/04/06 07:38:36;;;;;;;8.50;3.38;;;;;;;;;;5012146;28;20052;-67
2024/04/06 07:41:03;;;;;;;8.32;3.42;;;;;;;;;;5017555;28;20034;-67
2024/04/06 07:43:29;;;;;;;11.18;3.90;;;;;;;;;;5013670;28;20034;-67
2024/04/06 07:45:56;;;;;;;6.80;3.38;;;;;;;;;;5020772;28;20041;-65
2024/04/06 07:48:22;;;;;;;11.55;3.80;;;;;;;;;;5010733;28;20053;-68
2024/04/06 07:50:49;;;;;;;5.90;3.30;;;;;;;;;;5011394;28;20061;-67
2024/04/06 07:53:15;;;;;;;6.18;3.53;;;;;;;;;;5008933;28;20053;-68
2024/04/06 07:55:41;;;;;;;6.95;3.20;;;;;;;;;;5010934;28;20372;-67
2024/04/06 07:58:08;;;;;;;4.80;3.17;;;;;;;;;;5013047;28;20050;-69
2024/04/06 08:00:34;;;;;;;8.40;3.53;;;;;;;;;;5007511;28;20049;-68
2024/04/06 08:03:01;;;;;;;5.78;3.00;;;;;;;;;;5011596;28;20036;-68
2024/04/06 08:05:27;;;;;;;9.65;3.58;;;;;;;;;;5010060;28;20045;-67
2024/04/06 08:07:53;;;;;;;6.93;3.70;;;;;;;;;;5017866;28;20040;-67
2024/04/06 08:10:21;;;;;;;7.60;3.80;;;;;;;;;;5013684;28;20419;-68
2024/04/06 08:12:47;;;;;;;10.82;3.50;;;;;;;;;;5012284;28;20132;-68
2024/04/06 08:15:14;;;;;;;7.15;3.92;;;;;;;;;;5012373;28;20033;-67
2024/04/06 08:17:41;;;;;;;8.85;3.75;;;;;;;;;;5018313;28;20041;-69
2024/04/06 08:20:08;;;;;;;9.80;4.10;;;;;;;;;;5018263;28;20049;-68
2024/04/06 08:22:35;;;;;;;7.90;3.63;;;;;;;;;;5013545;28;20476;-68
2024/04/06 08:25:05;;;;;;;8.57;3.83;;;;;;;;;;5011237;28;20030;-67
2024/04/06 08:27:33;;;;;;;7.22;3.90;;;;;;;;;;5015068;28;20489;-67
2024/04/06 08:30:04;;;;;;;10.68;4.20;;;;;;;;;;5010398;28;20037;-66
2024/04/06 08:32:33;;;;;;;7.72;4.15;;;;;;;;;;5011019;28;20153;-66
2024/04/06 08:35:00;;;;;;;8.45;4.55;;;;;;;;;;5010385;28;20038;-65
2024/04/06 08:37:29;;;;;;;11.50;3.85;;;;;;;;;;5017378;28;20042;-65
2024/04/06 08:39:55;;;;;;;6.93;4.10;;;;;;;;;;5017090;28;20037;-65
2024/04/06 08:42:22;;;;;;;11.90;4.47;;;;;;;;;;5017836;28;20046;-65
2024/04/06 08:44:50;;;;;;;10.00;4.47;;;;;;;;;;5014443;28;20427;-65
2024/04/06 08:47:20;;;;;;;10.70;4.43;;;;;;;;;;5016318;28;20113;-66
2024/04/06 08:49:47;;;;;;;7.85;4.55;;;;;;;;;;4998646;28;20038;-65
2024/04/06 08:52:14;;;;;;;9.02;4.80;;;;;;;;;;5007171;28;20520;-66
2024/04/06 08:54:42;;;;;;;8.25;4.30;;;;;;;;;;5003143;28;20099;-66
2024/04/06 08:57:08;;;;;;;7.22;3.88;;;;;;;;;;5011318;28;20061;-68
2024/04/06 08:59:35;;;;;;;6.22;3.65;;;;;;;;;;5016555;28;20041;-65
2024/04/06 09:02:01;;;;;;;6.78;3.83;;;;;;;;;;5012095;28;20049;-65
2024/04/06 09:04:28;;;;;;;7.43;3.35;;;;;;;;;;5012009;28;20045;-64
2024/04/06 09:06:54;;;;;;;9.93;3.75;;;;;;;;;;5013861;28;20057;-64
2024/04/06 09:09:20;;;;;;;10.07;3.38;;;;;;;;;;5011257;28;20042;-65
2024/04/06 09:11:47;;;;;;;5.25;2.88;;;;;;;;;;5009807;28;20045;-64
2024/04/06 09:14:13;;;;;;;7.93;3.15;;;;;;;;;;5012880;28;20381;-64
2024/04/06 09:16:39;;;;;;;10.70;3.50;;;;;;;;;;5014190;28;20049;-64
2024/04/06 09:19:06;;;;;;;6.80;2.88;;;;;;;;;;5010172;28;20053;-64
2024/04/06 09:21:32;;;;;;;8.25;2.40;;;;;;;;;;5014321;28;20056;-65
2024/04/06 09:24:00;;;;;;;2.35;1.60;;;;;;;;;;5014318;28;20042;-65
2024/04/06 09:26:34;;;;;;;5.72;1.67;;;;;;;;;;4996346;28;20029;-65
2024/04/06 09:29:01;;;;;;;2.67;1.38;;;;;;;;;;5008663;28;20480;-64
2024/04/06 09:31:28;;;;;;;3.85;1.35;;;;;;;;;;5012955;28;20041;-64
2024/04/06 09:33:56;;;;;;;4.30;1.23;;;;;;;;;;5013675;28;20416;-66
2024/04/06 09:36:23;;;;;;;2.63;1.48;;;;;;;;;;5015567;28;20056;-66
2024/04/06 09:38:50;;;;;;;3.35;1.40;;;;;;;;;;5014063;28;20038;-67
2024/04/06 09:41:17;;;;;;;2.95;1.33;;;;;;;;;;5014800;28;20052;-66
2024/04/06 09:43:44;;;;;;;6.72;1.60;;;;;;;;;;5011548;28;20056;-65
2024/04/06 09:46:11;;;;;;;3.22;1.40;;;;;;;;;;5009389;28;20038;-66
2024/04/06 09:48:39;;;;;;;4.25;1.27;;;;;;;;;;5010832;28;20037;-64
2024/04/06 09:51:05;;;;;;;1.65;1.25;;;;;;;;;;5005889;28;20049;-65
2024/04/06 09:53:33;;;;;;;2.85;1.35;;;;;;;;;;5009969;28;20056;-66
2024/04/06 09:56:01;;;;;;;6.20;4.68;;;;;;;;;;5011038;28;20034;-65
2024/04/06 09:58:28;;;;;;;457.17;326.08;;;;;;;;;;5010490;28;20038;-65
2024/04/06 10:01:09;;;;;;;38.42;19.73;;;;;;;;;;5009669;28;20081;-65
2024/04/06 10:03:35;;;;;;;5.25;2.70;;;;;;;;;;5009115;28;20038;-65
2024/04/06 10:06:15;;;;;;;3.97;1.77;;;;;;;;;;5017132;28;20052;-66
2024/04/06 10:08:51;;;;;;;1.58;1.30;;;;;;;;;;5012824;28;20053;-67
2024/04/06 10:11:21;;;;;;;1.67;1.40;;;;;;;;;;5010311;28;20044;-65
2024/04/06 10:13:57;;;;;;;2.67;1.25;;;;;;;;;;5013118;28;20056;-64
2024/04/06 10:16:25;;;;;;;7.10;1.50;;;;;;;;;;5009958;28;20398;-67
2024/04/06 10:18:54;;;;;;;3.22;1.70;;;;;;;;;;5014750;28;20049;-65
2024/04/06 10:21:20;;;;;;;2.55;1.35;;;;;;;;;;5013822;28;20045;-65
2024/04/06 10:23:47;;;;;;;3.33;1.50;;;;;;;;;;5009563;28;20041;-65
2024/04/06 10:26:14;;;;;;;6.10;1.65;;;;;;;;;;5014513;28;20489;-64
2024/04/06 10:28:42;;;;;;;2.63;1.20;;;;;;;;;;5011804;28;20061;-63
2024/04/06 10:31:08;;;;;;;2.75;1.35;;;;;;;;;;5006827;28;20057;-65
2024/04/06 10:33:38;;;;;;;1.77;1.20;;;;;;;;;;5010101;28;20068;-64
2024/04/06 10:36:12;;;;;;;3.03;1.27;;;;;;;;;;5017275;28;20044;-63
2024/04/06 10:38:39;;;;;;;4.05;1.40;;;;;;;;;;5004438;28;20052;-63
2024/04/06 10:41:06;;;;;;;5.53;1.38;;;;;;;;;;5011809;28;20029;-64
2024/04/06 10:43:35;;;;;;;2.40;1.13;;;;;;;;;;5010717;28;20056;-64
2024/04/06 10:46:04;;;;;;;1.88;1.20;;;;;;;;;;5012329;28;20029;-69
2024/04/06 10:48:31;;;;;;;3.90;1.20;;;;;;;;;;5012339;28;20042;-67
2024/04/06 10:50:58;;;;;;;1.98;1.20;;;;;;;;;;5007663;28;20046;-67
2024/04/06 10:53:25;;;;;;;2.38;1.42;;;;;;;;;;5008410;28;20026;-66
2024/04/06 10:55:52;;;;;;;4.80;1.50;;;;;;;;;;5008427;28;20044;-67
2024/04/06 10:58:18;;;;;;;1.60;1.02;;;;;;;;;;5010798;28;20044;-67
2024/04/06 11:00:47;;;;;;;3.35;1.48;;;;;;;;;;5006201;28;20057;-66
2024/04/06 11:03:14;;;;;;;2.78;0.90;;;;;;;;;;5009100;28;20034;-64
2024/04/06 11:05:40;;;;;;;1.67;1.08;;;;;;;;;;5012266;28;20050;-64
2024/04/06 11:08:07;;;;;;;2.45;1.10;;;;;;;;;;5011459;28;20412;-64
2024/04/06 11:10:34;;;;;;;2.00;1.00;;;;;;;;;;5008554;28;20611;-66
2024/04/06 11:13:00;;;;;;;2.58;1.10;;;;;;;;;;5014180;28;20389;-65
2024/04/06 11:15:27;;;;;;;2.28;0.98;;;;;;;;;;5007369;28;20046;-66
2024/04/06 11:17:55;;;;;;;4.05;1.00;;;;;;;;;;5009338;28;20034;-64
2024/04/06 11:20:21;;;;;;;3.45;1.52;;;;;;;;;;5013549;28;20057;-65
2024/04/06 11:22:48;;;;;;;4.80;1.40;;;;;;;;;;5016778;28;20049;-64
2024/04/06 11:25:17;;;;;;;2.85;0.98;;;;;;;;;;5012035;28;20037;-64
2024/04/06 11:27:48;;;;;;;2.55;1.30;;;;;;;;;;5009927;28;20034;-64
2024/04/06 11:30:16;;;;;;;4.78;0.95;;;;;;;;;;5010654;28;20038;-66
2024/04/06 11:32:43;;;;;;;;;;;;;;;;;;5010530;28;20049;-66
2024/04/06 11:35:09;;;;;;;3.97;1.00;;;;;;;;;;5010628;28;20416;-65
2024/04/06 11:37:36;;;;;;;2.78;1.30;;;;;;;;;;5012795;28;20069;-66
2024/04/06 11:40:02;;;;;;;1.77;1.30;;;;;;;;;;5014900;28;20064;-66
2024/04/06 11:42:28;;;;;;;2.58;1.33;;;;;;;;;;5010711;28;20040;-66
2024/04/06 11:44:54;;;;;;;3.08;1.30;;;;;;;;;;5009763;28;20050;-66
2024/04/06 11:47:20;;;;;;;11.02;1.63;;;;;;;;;;5007831;28;20049;-65
2024/04/06 11:49:48;;;;;;;6.47;1.17;;;;;;;;;;5006678;28;20057;-66
2024/04/06 11:52:15;;;;;;;8.02;1.27;;;;;;;;;;5008370;28;20042;-66
2024/04/06 11:54:42;;;;;;;3.33;1.35;;;;;;;;;;5009127;28;20413;-66
2024/04/06 11:57:08;;;;;;;1.58;1.00;;;;;;;;;;5010748;28;20050;-66
2024/04/06 11:59:34;;;;;;;3.22;1.00;;;;;;;;;;5002170;28;20034;-66
2024/04/06 12:02:00;;;;;;;1.50;1.10;;;;;;;;;;5012270;28;20408;-65
2024/04/06 12:04:27;;;;;;;2.75;1.20;;;;;;;;;;5012481;28;20041;-66
2024/04/06 12:06:53;;;;;;;1.75;0.95;;;;;;;;;;5013977;28;20034;-66
2024/04/06 12:09:19;;;;;;;1.90;0.80;;;;;;;;;;5012217;28;20045;-66
2024/04/06 12:11:46;;;;;;;1.52;0.98;;;;;;;;;;5010563;28;20041;-66
2024/04/06 12:14:12;;;;;;;1.92;0.82;;;;;;;;;;5012823;28;20046;-68
2024/04/06 12:16:38;;;;;;;1.90;0.90;;;;;;;;;;5016813;28;20049;-67
2024/04/06 12:19:04;;;;;;;1.40;0.85;;;;;;;;;;5012402;28;20054;-67
2024/04/06 12:21:30;;;;;;;1.48;1.08;;;;;;;;;;5016250;28;20030;-67
2024/04/06 12:23:57;;;;;;;1.65;0.88;;;;;;;;;;5015283;28;20038;-68
2024/04/06 12:26:23;;;;;;;1.20;0.90;;;;;;;;;;5010559;28;20036;-67
2024/04/06 12:28:49;;;;;;;2.17;1.20;;;;;;;;;;5015229;28;20033;-66
2024/04/06 12:31:19;;;;;;;1.63;1.00;;;;;;;;;;5013983;28;20504;-67
2024/04/06 12:33:45;;;;;;;3.13;1.00;;;;;;;;;;5010098;28;20428;-69
2024/04/06 12:36:11;;;;;;;2.05;0.80;;;;;;;;;;5010359;28;20049;-68
2024/04/06 12:38:37;;;;;;;1.13;0.88;;;;;;;;;;5014392;28;20049;-69
2024/04/06 12:41:03;;;;;;;1.15;0.68;;;;;;;;;;5013879;28;20045;-72
2024/04/06 12:43:30;;;;;;;2.75;1.10;;;;;;;;;;5020265;28;20065;-70
2024/04/06 12:45:56;;;;;;;2.58;0.85;;;;;;;;;;5020387;28;20393;-69
2024/04/06 12:48:22;;;;;;;1.73;0.80;;;;;;;;;;5011191;28;20049;-67
2024/04/06 12:50:52;;;;;;;1.85;0.95;;;;;;;;;;5009141;28;20038;-67
2024/04/06 12:53:18;;;;;;;1.10;0.98;;;;;;;;;;5010527;28;20044;-68
2024/04/06 12:55:45;;;;;;;1.55;1.00;;;;;;;;;;5012038;28;20033;-69
2024/04/06 12:58:12;;;;;;;3.08;1.00;;;;;;;;;;5010014;28;20050;-68
2024/04/06 13:00:38;;;;;;;1.98;0.90;;;;;;;;;;5016618;28;20056;-69
2024/04/06 13:03:04;;;;;;;1.25;0.80;;;;;;;;;;5011073;28;20052;-70
2024/04/06 13:05:31;;;;;;;3.47;0.90;;;;;;;;;;5012609;28;20048;-67
2024/04/06 13:07:58;;;;;;;3.03;0.90;;;;;;;;;;5003920;28;20033;-68
2024/04/06 13:10:24;;;;;;;2.80;1.10;;;;;;;;;;5014581;28;20037;-66
2024/04/06 13:12:51;;;;;;;2.90;1.05;;;;;;;;;;5009804;28;20045;-67
2024/04/06 13:15:17;;;;;;;1.88;1.02;;;;;;;;;;5008228;28;20440;-67
2024/04/06 13:17:43;;;;;;;3.85;2.60;;;;;;;;;;5015591;28;20122;-66
2024/04/06 13:22:44;;;;;;;2.28;1.10;;;;;;;;;;5013444;28;20441;-67
2024/04/06 13:25:14;;;;;;;1.90;0.80;;;;;;;;;;5008792;28;20045;-65
2024/04/06 13:27:42;;;;;;;1.08;0.90;;;;;;;;;;5000278;28;20292;-67
2024/04/06 13:30:08;;;;;;;2.05;0.60;;;;;;;;;;5010275;28;20042;-65
2024/04/06 13:32:35;;;;;;;1.08;0.63;;;;;;;;;;5013658;28;20034;-68
2024/04/06 13:35:02;;;;;;;0.90;0.80;;;;;;;;;;5018108;28;20042;-67
2024/04/06 13:37:28;;;;;;;1.05;0.60;;;;;;;;;;5019067;28;20054;-67
2024/04/06 13:39:55;;;;;;;1.58;0.60;;;;;;;;;;5015351;28;20036;-68
2024/04/06 13:42:22;;;;;;;8.07;1.00;;;;;;;;;;5017331;28;20049;-69
2024/04/06 13:44:48;;;;;;;2.88;1.70;;;;;;;;;;5012346;28;20037;-67
2024/04/06 13:47:15;;;;;;;1.33;1.00;;;;;;;;;;5010953;28;20424;-69
2024/04/06 13:49:41;;;;;;;1.83;1.20;;;;;;;;;;5011484;28;20046;-69
2024/04/06 13:52:10;;;;;;;2.45;1.00;;;;;;;;;;5010319;28;20045;-70
2024/04/06 13:54:37;;;;;;;1.60;1.00;;;;;;;;;;5008446;28;20049;-67
2024/04/06 13:57:04;;;;;;;5.57;2.65;;;;;;;;;;5013262;28;20472;-67
2024/04/06 13:59:30;;;;;;;10.30;4.20;;;;;;;;;;5015574;28;20041;-69
2024/04/06 14:01:56;;;;;;;3.22;1.80;;;;;;;;;;5012384;28;20042;-71
2024/04/06 14:04:22;;;;;;;2.40;0.90;;;;;;;;;;5012255;28;20041;-70
2024/04/06 14:06:48;;;;;;;4.53;1.13;;;;;;;;;;5009807;28;20025;-69
2024/04/06 14:09:15;;;;;;;2.03;1.30;;;;;;;;;;5012324;28;20033;-68
2024/04/06 14:11:41;;;;;;;2.60;0.80;;;;;;;;;;5014189;28;20405;-69
2024/04/06 14:14:28;;;;;;;1.65;0.90;;;;;;;;;;5012349;28;20048;-67
2024/04/06 14:16:56;;;;;;;2.27;1.07;;;;;;;;;;5012101;28;20046;-68
2024/04/06 14:19:22;;;;;;;1.48;0.95;;;;;;;;;;5009645;28;20037;-68
2024/04/06 14:21:50;;;;;;;1.60;0.90;;;;;;;;;;5005214;28;20033;-69
2024/04/06 14:24:16;;;;;;;1.73;0.80;;;;;;;;;;5009073;28;20052;-68
2024/04/06 14:26:43;;;;;;;1.38;0.98;;;;;;;;;;5010300;28;20056;-68
2024/04/06 14:29:10;;;;;;;2.30;0.93;;;;;;;;;;5008432;28;21883;-67
2024/04/06 14:31:37;;;;;;;0.85;0.60;;;;;;;;;;5009943;28;20038;-66
2024/04/06 14:34:07;;;;;;;2.70;0.93;;;;;;;;;;5012616;28;20065;-66
2024/04/06 14:36:34;;;;;;;1.70;0.93;;;;;;;;;;4992499;28;20037;-68
2024/04/06 14:39:00;;;;;;;2.25;1.08;;;;;;;;;;5015414;28;20045;-68
2024/04/06 14:41:26;;;;;;;3.10;1.10;;;;;;;;;;4995439;28;20041;-67
2024/04/06 14:43:53;;;;;;;3.20;1.02;;;;;;;;;;5015197;28;20045;-67